sensor_id;sensor_type;location;lat;lon;timestamp;pressure;altitude;pressure_sealevel;temperature;humidity
34500;BME280;20745;50.882;6.962;2022-09-12T00:01:26;101128.19;;;15.51;100.00
34500;BME280;20745;50.882;6.962;2022-09-12T00:03:55;101136.13;;;15.46;100.00
34500;BME280;20745;50.882;6.962;2022-09-12T00:06:42;101134.41;;;15.39;100.00
34500;BME280;20745;50.882;6.962;2022-09-12T00:09:12;101138.66;;;15.48;100.00
34500;BME280;20745;50.882;6.962;2022-09-12T00:11:42;101125.66;;;15.50;100.00
34500;BME280;20745;50.882;6.962;2022-09-12T00:14:13;101124.84;;;15.56;100.00
34500;BME280;20745;50.882;6.962;2022-09-12T00:16:40;101114.38;;;15.53;100.00
34500;BME280;20745;50.882;6.962;2022-09-12T00:19:08;101116.69;;;15.56;100.00
34500;BME280;20745;50.882;6.962;2022-09-12T00:21:37;101116.88;;;15.61;100.00
34500;BME280;20745;50.882;6.962;2022-09-12T00:24:05;101115.41;;;15.58;100.00
34500;BME280;20745;50.882;6.962;2022-09-12T00:26:33;101124.44;;;15.59;100.00
34500;BME280;20745;50.882;6.962;2022-09-12T00:29:00;101122.13;;;15.56;100.00
34500;BME280;20745;50.882;6.962;2022-09-12T00:31:27;101116.69;;;15.56;100.00
34500;BME280;20745;50.882;6.962;2022-09-12T00:33:56;101110.19;;;15.57;100.00
34500;BME280;20745;50.882;6.962;2022-09-12T00:36:42;101115.63;;;15.50;100.00
34500;BME280;20745;50.882;6.962;2022-09-12T00:39:13;101112.66;;;15.45;100.00
34500;BME280;20745;50.882;6.962;2022-09-12T00:41:41;101106.34;;;15.38;100.00
34500;BME280;20745;50.882;6.962;2022-09-12T00:52:20;101107.13;;;15.32;100.00
34500;BME280;20745;50.882;6.962;2022-09-12T00:55:17;101103.78;;;15.30;100.00
34500;BME280;20745;50.882;6.962;2022-09-12T00:57:51;101099.59;;;15.34;100.00
34500;BME280;20745;50.882;6.962;2022-09-12T01:00:22;101102.50;;;15.26;100.00
34500;BME280;20745;50.882;6.962;2022-09-12T01:02:56;101100.81;;;15.25;100.00
34500;BME280;20745;50.882;6.962;2022-09-12T01:05:26;101096.16;;;15.13;100.00
34500;BME280;20745;50.882;6.962;2022-09-12T01:07:55;101102.84;;;15.10;100.00
34500;BME280;20745;50.882;6.962;2022-09-12T01:10:23;101095.69;;;15.09;100.00
34500;BME280;20745;50.882;6.962;2022-09-12T01:13:09;101089.44;;;15.09;100.00
34500;BME280;20745;50.882;6.962;2022-09-12T01:15:37;101089.00;;;15.05;100.00
34500;BME280;20745;50.882;6.962;2022-09-12T01:18:37;101094.81;;;15.02;100.00
34500;BME280;20745;50.882;6.962;2022-09-12T01:30:05;101094.59;;;14.97;100.00
34500;BME280;20745;50.882;6.962;2022-09-12T01:35:33;101081.00;;;14.97;100.00
34500;BME280;20745;50.882;6.962;2022-09-12T01:38:24;101083.47;;;14.92;100.00
34500;BME280;20745;50.882;6.962;2022-09-12T01:41:51;101080.59;;;15.00;100.00
34500;BME280;20745;50.882;6.962;2022-09-12T01:50:03;101084.72;;;14.90;100.00
34500;BME280;20745;50.882;6.962;2022-09-12T01:52:49;101080.13;;;14.90;100.00
34500;BME280;20745;50.882;6.962;2022-09-12T01:55:23;101075.31;;;14.92;100.00
34500;BME280;20745;50.882;6.962;2022-09-12T01:58:19;101072.44;;;15.00;100.00
34500;BME280;20745;50.882;6.962;2022-09-12T02:00:55;101070.34;;;15.02;100.00
34500;BME280;20745;50.882;6.962;2022-09-12T02:03:30;101066.16;;;15.00;100.00
34500;BME280;20745;50.882;6.962;2022-09-12T02:06:07;101071.00;;;15.04;100.00
34500;BME280;20745;50.882;6.962;2022-09-12T02:08:39;101064.50;;;14.99;100.00
34500;BME280;20745;50.882;6.962;2022-09-12T02:11:10;101065.97;;;15.01;100.00
34500;BME280;20745;50.882;6.962;2022-09-12T02:16:44;101052.75;;;14.92;100.00
34500;BME280;20745;50.882;6.962;2022-09-12T02:19:22;101048.50;;;14.89;100.00
34500;BME280;20745;50.882;6.962;2022-09-12T02:21:54;101052.94;;;14.90;100.00
34500;BME280;20745;50.882;6.962;2022-09-12T02:24:43;101059.66;;;14.94;100.00
34500;BME280;20745;50.882;6.962;2022-09-12T02:27:25;101054.22;;;14.94;100.00
34500;BME280;20745;50.882;6.962;2022-09-12T02:29:53;101050.22;;;14.90;100.00
34500;BME280;20745;50.882;6.962;2022-09-12T02:32:30;101055.47;;;14.92;100.00
34500;BME280;20745;50.882;6.962;2022-09-12T02:38:01;101051.66;;;14.86;100.00
34500;BME280;20745;50.882;6.962;2022-09-12T02:40:29;101053.53;;;14.86;100.00
34500;BME280;20745;50.882;6.962;2022-09-12T02:42:57;101048.50;;;14.83;100.00
34500;BME280;20745;50.882;6.962;2022-09-12T02:45:24;101039.88;;;14.79;100.00
34500;BME280;20745;50.882;6.962;2022-09-12T02:48:15;101040.31;;;14.76;100.00
34500;BME280;20745;50.882;6.962;2022-09-12T02:50:45;101045.56;;;14.78;100.00
34500;BME280;20745;50.882;6.962;2022-09-12T02:53:12;101036.53;;;14.77;100.00
34500;BME280;20745;50.882;6.962;2022-09-12T02:55:40;101037.78;;;14.75;100.00
34500;BME280;20745;50.882;6.962;2022-09-12T02:58:28;101035.69;;;14.70;100.00
34500;BME280;20745;50.882;6.962;2022-09-12T03:07:19;101037.25;;;14.58;100.00
34500;BME280;20745;50.882;6.962;2022-09-12T03:15:52;101037.66;;;14.55;100.00
34500;BME280;20745;50.882;6.962;2022-09-12T03:18:50;101029.22;;;14.43;100.00
34500;BME280;20745;50.882;6.962;2022-09-12T03:24:11;101004.44;;;14.25;100.00
34500;BME280;20745;50.882;6.962;2022-09-12T03:26:51;101045.72;;;14.42;100.00
34500;BME280;20745;50.882;6.962;2022-09-12T03:29:19;101038.41;;;14.42;100.00
34500;BME280;20745;50.882;6.962;2022-09-12T03:31:52;101038.63;;;14.41;100.00
34500;BME280;20745;50.882;6.962;2022-09-12T03:34:21;101042.13;;;14.35;100.00
34500;BME280;20745;50.882;6.962;2022-09-12T03:36:48;101039.66;;;14.40;100.00
34500;BME280;20745;50.882;6.962;2022-09-12T03:39:16;101040.47;;;14.40;100.00
34500;BME280;20745;50.882;6.962;2022-09-12T03:42:02;101030.84;;;14.38;100.00
34500;BME280;20745;50.882;6.962;2022-09-12T03:44:29;101037.38;;;14.43;100.00
34500;BME280;20745;50.882;6.962;2022-09-12T03:46:56;101044.44;;;14.38;100.00
34500;BME280;20745;50.882;6.962;2022-09-12T03:49:23;101048.81;;;14.32;100.00
34500;BME280;20745;50.882;6.962;2022-09-12T03:51:50;101042.31;;;14.33;100.00
34500;BME280;20745;50.882;6.962;2022-09-12T03:54:25;101041.09;;;14.36;100.00
34500;BME280;20745;50.882;6.962;2022-09-12T03:56:52;101037.72;;;14.34;100.00
34500;BME280;20745;50.882;6.962;2022-09-12T03:59:19;101025.00;;;14.34;100.00
34500;BME280;20745;50.882;6.962;2022-09-12T04:01:46;101033.47;;;14.25;100.00
34500;BME280;20745;50.882;6.962;2022-09-12T04:04:13;101045.63;;;14.29;100.00
34500;BME280;20745;50.882;6.962;2022-09-12T04:06:59;101026.38;;;14.24;100.00
34500;BME280;20745;50.882;6.962;2022-09-12T04:09:26;101033.34;;;14.33;100.00
34500;BME280;20745;50.882;6.962;2022-09-12T04:11:53;101032.53;;;14.39;100.00
34500;BME280;20745;50.882;6.962;2022-09-12T04:14:20;101030.06;;;14.44;100.00
34500;BME280;20745;50.882;6.962;2022-09-12T04:16:47;101026.69;;;14.42;100.00
34500;BME280;20745;50.882;6.962;2022-09-12T04:19:14;101021.72;;;14.45;100.00
34500;BME280;20745;50.882;6.962;2022-09-12T04:21:41;101020.88;;;14.45;100.00
34500;BME280;20745;50.882;6.962;2022-09-12T04:24:08;101031.34;;;14.48;100.00
34500;BME280;20745;50.882;6.962;2022-09-12T04:26:35;101027.34;;;14.44;100.00
34500;BME280;20745;50.882;6.962;2022-09-12T04:29:20;101016.03;;;14.40;100.00
34500;BME280;20745;50.882;6.962;2022-09-12T04:31:47;101015.22;;;14.40;100.00
34500;BME280;20745;50.882;6.962;2022-09-12T04:34:32;101018.34;;;14.43;100.00
34500;BME280;20745;50.882;6.962;2022-09-12T04:36:59;101012.28;;;14.41;100.00
34500;BME280;20745;50.882;6.962;2022-09-12T04:39:26;101017.31;;;14.44;100.00
34500;BME280;20745;50.882;6.962;2022-09-12T04:41:53;101008.91;;;14.39;100.00
34500;BME280;20745;50.882;6.962;2022-09-12T04:44:39;101007.06;;;14.40;100.00
34500;BME280;20745;50.882;6.962;2022-09-12T04:47:06;101015.41;;;14.38;100.00
34500;BME280;20745;50.882;6.962;2022-09-12T04:49:33;101009.56;;;14.41;100.00
34500;BME280;20745;50.882;6.962;2022-09-12T04:52:19;101006.25;;;14.46;100.00
34500;BME280;20745;50.882;6.962;2022-09-12T04:54:46;101005.59;;;14.44;100.00
34500;BME280;20745;50.882;6.962;2022-09-12T04:57:28;100995.59;;;14.44;100.00
34500;BME280;20745;50.882;6.962;2022-09-12T04:59:55;101005.84;;;14.49;100.00
34500;BME280;20745;50.882;6.962;2022-09-12T05:02:21;100997.06;;;14.47;100.00
34500;BME280;20745;50.882;6.962;2022-09-12T05:05:08;100994.97;;;14.49;100.00
34500;BME280;20745;50.882;6.962;2022-09-12T05:07:35;100989.97;;;14.46;100.00
34500;BME280;20745;50.882;6.962;2022-09-12T05:10:02;100992.03;;;14.44;100.00
34500;BME280;20745;50.882;6.962;2022-09-12T05:12:30;100982.00;;;14.44;100.00
34500;BME280;20745;50.882;6.962;2022-09-12T05:14:57;100995.81;;;14.49;100.00
34500;BME280;20745;50.882;6.962;2022-09-12T05:17:24;100994.97;;;14.49;100.00
34500;BME280;20745;50.882;6.962;2022-09-12T05:19:51;100988.72;;;14.48;100.00
34500;BME280;20745;50.882;6.962;2022-09-12T05:22:18;100995.22;;;14.54;100.00
34500;BME280;20745;50.882;6.962;2022-09-12T05:24:45;100993.97;;;14.56;100.00
34500;BME280;20745;50.882;6.962;2022-09-12T05:27:16;100987.09;;;14.60;100.00
34500;BME280;20745;50.882;6.962;2022-09-12T05:29:43;100993.19;;;14.69;100.00
34500;BME280;20745;50.882;6.962;2022-09-12T05:32:10;100997.41;;;14.72;100.00
34500;BME280;20745;50.882;6.962;2022-09-12T05:34:39;101004.31;;;14.74;100.00
34500;BME280;20745;50.882;6.962;2022-09-12T05:37:06;100997.03;;;14.81;100.00
34500;BME280;20745;50.882;6.962;2022-09-12T05:39:32;100999.34;;;14.84;100.00
34500;BME280;20745;50.882;6.962;2022-09-12T05:41:59;100990.97;;;14.86;100.00
34500;BME280;20745;50.882;6.962;2022-09-12T05:44:26;101006.06;;;14.88;100.00
34500;BME280;20745;50.882;6.962;2022-09-12T05:47:12;100995.22;;;14.95;100.00
34500;BME280;20745;50.882;6.962;2022-09-12T05:49:40;100992.72;;;15.00;100.00
34500;BME280;20745;50.882;6.962;2022-09-12T05:52:07;101006.56;;;15.05;100.00
34500;BME280;20745;50.882;6.962;2022-09-12T05:54:34;100999.88;;;15.07;100.00
34500;BME280;20745;50.882;6.962;2022-09-12T05:57:20;101008.63;;;15.09;100.00
34500;BME280;20745;50.882;6.962;2022-09-12T05:59:47;101005.09;;;15.15;100.00
34500;BME280;20745;50.882;6.962;2022-09-12T06:02:15;101009.94;;;15.20;100.00
34500;BME280;20745;50.882;6.962;2022-09-12T06:04:43;101007.66;;;15.23;100.00
34500;BME280;20745;50.882;6.962;2022-09-12T06:07:09;101012.06;;;15.24;100.00
34500;BME280;20745;50.882;6.962;2022-09-12T06:09:48;101009.97;;;15.26;100.00
34500;BME280;20745;50.882;6.962;2022-09-12T06:12:24;101012.72;;;15.26;100.00
34500;BME280;20745;50.882;6.962;2022-09-12T06:14:52;101012.06;;;15.24;100.00
34500;BME280;20745;50.882;6.962;2022-09-12T06:17:19;101020.13;;;15.52;100.00
34500;BME280;20745;50.882;6.962;2022-09-12T06:20:06;101015.09;;;15.49;100.00
34500;BME280;20745;50.882;6.962;2022-09-12T06:22:33;101012.16;;;15.50;100.00
34500;BME280;20745;50.882;6.962;2022-09-12T06:25:01;101020.34;;;15.50;100.00
34500;BME280;20745;50.882;6.962;2022-09-12T06:27:29;101017.59;;;15.50;100.00
34500;BME280;20745;50.882;6.962;2022-09-12T06:29:56;101015.50;;;15.52;100.00
34500;BME280;20745;50.882;6.962;2022-09-12T06:32:23;101004.63;;;15.59;100.00
34500;BME280;20745;50.882;6.962;2022-09-12T06:34:50;101011.97;;;15.65;100.00
34500;BME280;20745;50.882;6.962;2022-09-12T06:37:23;101010.09;;;15.65;100.00
34500;BME280;20745;50.882;6.962;2022-09-12T06:39:50;101011.38;;;15.69;100.00
34500;BME280;20745;50.882;6.962;2022-09-12T06:42:17;101010.31;;;15.70;100.00
34500;BME280;20745;50.882;6.962;2022-09-12T06:45:03;101010.94;;;15.79;100.00
34500;BME280;20745;50.882;6.962;2022-09-12T06:47:30;101019.34;;;15.90;100.00
34500;BME280;20745;50.882;6.962;2022-09-12T06:49:57;101022.06;;;15.97;100.00
34500;BME280;20745;50.882;6.962;2022-09-12T06:52:24;101029.00;;;15.99;100.00
34500;BME280;20745;50.882;6.962;2022-09-12T06:54:52;101019.97;;;15.99;100.00
34500;BME280;20745;50.882;6.962;2022-09-12T06:57:19;101022.69;;;15.99;100.00
34500;BME280;20745;50.882;6.962;2022-09-12T07:00:05;101018.72;;;16.08;100.00
34500;BME280;20745;50.882;6.962;2022-09-12T07:02:32;101012.19;;;16.15;100.00
34500;BME280;20745;50.882;6.962;2022-09-12T07:04:59;101014.50;;;16.18;100.00
34500;BME280;20745;50.882;6.962;2022-09-12T07:07:26;101012.41;;;16.20;100.00
34500;BME280;20745;50.882;6.962;2022-09-12T07:10:12;101010.53;;;16.27;100.00
34500;BME280;20745;50.882;6.962;2022-09-12T07:12:39;101010.94;;;16.37;100.00
34500;BME280;20745;50.882;6.962;2022-09-12T07:15:06;101020.34;;;16.41;100.00
34500;BME280;20745;50.882;6.962;2022-09-12T07:17:33;101015.56;;;16.43;100.00
34500;BME280;20745;50.882;6.962;2022-09-12T07:20:01;101023.53;;;16.45;100.00
34500;BME280;20745;50.882;6.962;2022-09-12T07:22:28;101023.94;;;16.48;100.00
34500;BME280;20745;50.882;6.962;2022-09-12T07:24:55;101019.72;;;16.52;100.00
34500;BME280;20745;50.882;6.962;2022-09-12T07:27:23;101019.50;;;16.54;100.00
34500;BME280;20745;50.882;6.962;2022-09-12T07:29:50;101012.81;;;16.56;100.00
34500;BME280;20745;50.882;6.962;2022-09-12T07:32:17;101013.44;;;16.58;100.00
34500;BME280;20745;50.882;6.962;2022-09-12T07:34:44;101015.13;;;16.59;100.00
34500;BME280;20745;50.882;6.962;2022-09-12T07:37:11;101010.91;;;16.63;100.00
34500;BME280;20745;50.882;6.962;2022-09-12T07:39:56;101011.09;;;16.68;100.00
34500;BME280;20745;50.882;6.962;2022-09-12T07:42:23;101011.50;;;16.72;100.00
34500;BME280;20745;50.882;6.962;2022-09-12T07:44:50;101007.09;;;16.77;100.00
34500;BME280;20745;50.882;6.962;2022-09-12T07:47:18;101019.44;;;16.86;100.00
34500;BME280;20745;50.882;6.962;2022-09-12T07:50:04;101017.09;;;16.96;100.00
34500;BME280;20745;50.882;6.962;2022-09-12T07:52:31;101020.00;;;17.01;100.00
34500;BME280;20745;50.882;6.962;2022-09-12T07:54:58;101019.16;;;17.08;100.00
34500;BME280;20745;50.882;6.962;2022-09-12T07:57:25;101021.41;;;17.17;100.00
34500;BME280;20745;50.882;6.962;2022-09-12T07:59:52;101025.78;;;17.25;100.00
34500;BME280;20745;50.882;6.962;2022-09-12T08:02:37;101016.50;;;17.32;100.00
34500;BME280;20745;50.882;6.962;2022-09-12T08:05:07;101019.63;;;17.36;100.00
34500;BME280;20745;50.882;6.962;2022-09-12T08:07:34;101023.41;;;17.41;100.00
34500;BME280;20745;50.882;6.962;2022-09-12T08:10:01;101021.72;;;17.47;100.00
34500;BME280;20745;50.882;6.962;2022-09-12T08:12:29;101022.31;;;17.55;100.00
34500;BME280;20745;50.882;6.962;2022-09-12T08:14:57;101020.16;;;17.64;100.00
34500;BME280;20745;50.882;6.962;2022-09-12T08:17:25;101019.88;;;17.72;100.00
34500;BME280;20745;50.882;6.962;2022-09-12T08:19:51;101018.38;;;17.76;100.00
34500;BME280;20745;50.882;6.962;2022-09-12T08:22:19;101022.78;;;17.77;100.00
34500;BME280;20745;50.882;6.962;2022-09-12T08:24:47;101019.19;;;17.83;100.00
34500;BME280;20745;50.882;6.962;2022-09-12T08:27:14;101018.91;;;17.91;100.00
34500;BME280;20745;50.882;6.962;2022-09-12T08:29:42;101023.94;;;17.87;100.00
34500;BME280;20745;50.882;6.962;2022-09-12T08:32:09;101023.28;;;17.92;100.00
34500;BME280;20745;50.882;6.962;2022-09-12T08:34:36;101021.19;;;17.94;100.00
34500;BME280;20745;50.882;6.962;2022-09-12T08:37:03;101023.72;;;17.89;100.00
34500;BME280;20745;50.882;6.962;2022-09-12T08:39:30;101014.31;;;17.85;100.00
34500;BME280;20745;50.882;6.962;2022-09-12T08:42:04;101026.25;;;17.90;100.00
34500;BME280;20745;50.882;6.962;2022-09-12T08:47:18;101022.25;;;17.93;100.00
34500;BME280;20745;50.882;6.962;2022-09-12T08:50:09;101020.34;;;17.93;100.00
34500;BME280;20745;50.882;6.962;2022-09-12T08:52:57;101018.69;;;17.92;100.00
34500;BME280;20745;50.882;6.962;2022-09-12T08:55:42;101016.78;;;17.93;100.00
34500;BME280;20745;50.882;6.962;2022-09-12T08:58:18;101022.84;;;17.95;100.00
34500;BME280;20745;50.882;6.962;2022-09-12T09:01:21;101019.91;;;17.96;100.00
34500;BME280;20745;50.882;6.962;2022-09-12T09:07:23;101008.22;;;18.07;100.00
34500;BME280;20745;50.882;6.962;2022-09-12T09:10:07;101005.25;;;18.15;100.00
34500;BME280;20745;50.882;6.962;2022-09-12T09:15:48;100999.88;;;18.27;100.00
34500;BME280;20745;50.882;6.962;2022-09-12T09:18:28;101000.66;;;18.34;100.00
34500;BME280;20745;50.882;6.962;2022-09-12T09:23:56;100992.94;;;18.49;100.00
34500;BME280;20745;50.882;6.962;2022-09-12T09:26:46;100992.03;;;18.55;100.00
34500;BME280;20745;50.882;6.962;2022-09-12T09:29:19;100988.78;;;18.64;100.00
34500;BME280;20745;50.882;6.962;2022-09-12T09:31:51;100985.13;;;18.70;100.00
34500;BME280;20745;50.882;6.962;2022-09-12T09:34:21;100977.44;;;18.79;100.00
34500;BME280;20745;50.882;6.962;2022-09-12T09:39:27;100974.88;;;18.84;100.00
34500;BME280;20745;50.882;6.962;2022-09-12T09:42:14;100978.81;;;18.88;100.00
34500;BME280;20745;50.882;6.962;2022-09-12T09:44:45;100972.19;;;18.95;100.00
34500;BME280;20745;50.882;6.962;2022-09-12T09:47:14;100965.25;;;19.11;99.62
34500;BME280;20745;50.882;6.962;2022-09-12T09:49:41;100964.91;;;19.19;99.57
34500;BME280;20745;50.882;6.962;2022-09-12T09:52:28;100959.16;;;19.27;97.92
34500;BME280;20745;50.882;6.962;2022-09-12T09:54:57;100962.03;;;19.32;99.01
34500;BME280;20745;50.882;6.962;2022-09-12T10:00:20;100954.59;;;19.39;97.51
34500;BME280;20745;50.882;6.962;2022-09-12T10:05:52;100948.38;;;19.44;95.72
34500;BME280;20745;50.882;6.962;2022-09-12T10:08:21;100947.91;;;19.47;97.54
34500;BME280;20745;50.882;6.962;2022-09-12T10:10:57;100951.63;;;19.52;93.72
34500;BME280;20745;50.882;6.962;2022-09-12T10:13:36;100945.09;;;19.53;92.38
34500;BME280;20745;50.882;6.962;2022-09-12T10:16:25;100939.63;;;19.65;92.13
34500;BME280;20745;50.882;6.962;2022-09-12T10:18:55;100938.44;;;19.72;93.47
34500;BME280;20745;50.882;6.962;2022-09-12T10:27:07;100921.44;;;19.93;89.58
34500;BME280;20745;50.882;6.962;2022-09-12T10:29:40;100923.81;;;20.01;86.46
34500;BME280;20745;50.882;6.962;2022-09-12T10:32:33;100925.00;;;20.05;86.33
34500;BME280;20745;50.882;6.962;2022-09-12T10:35:15;100923.59;;;20.14;86.25
34500;BME280;20745;50.882;6.962;2022-09-12T10:37:56;100919.31;;;20.18;86.74
34500;BME280;20745;50.882;6.962;2022-09-12T10:40:42;100917.16;;;20.20;83.51
34500;BME280;20745;50.882;6.962;2022-09-12T10:43:37;100918.84;;;20.21;84.99
34500;BME280;20745;50.882;6.962;2022-09-12T10:46:22;100911.53;;;20.27;84.50
34500;BME280;20745;50.882;6.962;2022-09-12T10:48:51;100916.09;;;20.33;82.57
34500;BME280;20745;50.882;6.962;2022-09-12T10:52:13;100902.72;;;20.36;81.28
34500;BME280;20745;50.882;6.962;2022-09-12T10:54:44;100900.53;;;20.50;81.42
34500;BME280;20745;50.882;6.962;2022-09-12T11:00:17;100904.94;;;20.62;79.45
34500;BME280;20745;50.882;6.962;2022-09-12T11:03:14;100892.75;;;20.58;80.37
34500;BME280;20745;50.882;6.962;2022-09-12T11:08:27;100885.53;;;20.80;78.68
34500;BME280;20745;50.882;6.962;2022-09-12T11:22:34;100867.53;;;21.12;72.56
34500;BME280;20745;50.882;6.962;2022-09-12T11:31:12;100849.16;;;21.29;70.51
34500;BME280;20745;50.882;6.962;2022-09-12T11:33:46;100849.22;;;21.34;70.63
34500;BME280;20745;50.882;6.962;2022-09-12T11:36:19;100849.47;;;21.33;70.89
34500;BME280;20745;50.882;6.962;2022-09-12T11:38:56;100854.91;;;21.44;71.45
34500;BME280;20745;50.882;6.962;2022-09-12T11:41:36;100840.41;;;21.49;71.42
34500;BME280;20745;50.882;6.962;2022-09-12T11:44:32;100849.75;;;21.48;70.31
34500;BME280;20745;50.882;6.962;2022-09-12T11:47:25;100846.75;;;21.49;70.44
34500;BME280;20745;50.882;6.962;2022-09-12T11:49:56;100851.41;;;21.49;72.42
34500;BME280;20745;50.882;6.962;2022-09-12T11:52:42;100843.94;;;21.61;69.73
34500;BME280;20745;50.882;6.962;2022-09-12T11:55:22;100832.53;;;21.52;70.14
34500;BME280;20745;50.882;6.962;2022-09-12T11:58:10;100837.00;;;21.58;71.42
34500;BME280;20745;50.882;6.962;2022-09-12T12:00:43;100834.00;;;21.60;70.91
34500;BME280;20745;50.882;6.962;2022-09-12T12:03:43;100831.00;;;21.61;71.06
34500;BME280;20745;50.882;6.962;2022-09-12T12:06:18;100834.66;;;21.67;72.55
34500;BME280;20745;50.882;6.962;2022-09-12T12:08:48;100831.28;;;21.77;70.21
34500;BME280;20745;50.882;6.962;2022-09-12T12:11:37;100830.19;;;21.78;68.87
34500;BME280;20745;50.882;6.962;2022-09-12T12:17:21;100826.34;;;21.79;68.82
34500;BME280;20745;50.882;6.962;2022-09-12T12:20:03;100821.59;;;21.91;69.37
34500;BME280;20745;50.882;6.962;2022-09-12T12:22:34;100821.09;;;21.94;68.58
34500;BME280;20745;50.882;6.962;2022-09-12T12:25:24;100820.63;;;22.02;70.98
34500;BME280;20745;50.882;6.962;2022-09-12T12:27:57;100821.72;;;22.01;69.10
34500;BME280;20745;50.882;6.962;2022-09-12T12:38:37;100800.06;;;22.04;68.85
34500;BME280;20745;50.882;6.962;2022-09-12T12:43:45;100800.63;;;22.28;66.71
34500;BME280;20745;50.882;6.962;2022-09-12T12:46:17;100793.25;;;22.33;67.24
34500;BME280;20745;50.882;6.962;2022-09-12T12:51:39;100781.22;;;22.39;63.64
34500;BME280;20745;50.882;6.962;2022-09-12T12:57:39;100765.81;;;22.38;65.58
34500;BME280;20745;50.882;6.962;2022-09-12T13:03:09;100769.78;;;22.47;66.13
34500;BME280;20745;50.882;6.962;2022-09-12T13:05:49;100765.50;;;22.56;64.91
34500;BME280;20745;50.882;6.962;2022-09-12T13:11:15;100752.06;;;22.60;64.48
34500;BME280;20745;50.882;6.962;2022-09-12T13:13:58;100752.16;;;22.70;64.07
34500;BME280;20745;50.882;6.962;2022-09-12T13:16:51;100756.38;;;22.77;64.58
34500;BME280;20745;50.882;6.962;2022-09-12T13:19:36;100743.22;;;22.84;66.05
34500;BME280;20745;50.882;6.962;2022-09-12T13:24:30;100747.81;;;23.05;63.00
34500;BME280;20745;50.882;6.962;2022-09-12T13:26:58;100739.38;;;23.17;63.73
34500;BME280;20745;50.882;6.962;2022-09-12T13:29:43;100740.22;;;23.17;63.31
34500;BME280;20745;50.882;6.962;2022-09-12T13:32:11;100741.53;;;23.15;63.47
34500;BME280;20745;50.882;6.962;2022-09-12T13:35:18;100734.13;;;23.15;62.83
34500;BME280;20745;50.882;6.962;2022-09-12T13:38:02;100742.16;;;23.22;62.92
34500;BME280;20745;50.882;6.962;2022-09-12T13:40:50;100741.13;;;23.28;63.27
34500;BME280;20745;50.882;6.962;2022-09-12T13:43:41;100745.59;;;23.34;63.69
34500;BME280;20745;50.882;6.962;2022-09-12T13:46:30;100741.19;;;23.33;62.53
34500;BME280;20745;50.882;6.962;2022-09-12T13:49:05;100730.19;;;23.38;62.44
34500;BME280;20745;50.882;6.962;2022-09-12T13:51:34;100739.56;;;23.37;62.91
34500;BME280;20745;50.882;6.962;2022-09-12T13:54:04;100731.94;;;23.54;63.08
34500;BME280;20745;50.882;6.962;2022-09-12T13:56:31;100730.91;;;23.60;62.98
34500;BME280;20745;50.882;6.962;2022-09-12T13:58:59;100719.88;;;23.65;62.69
34500;BME280;20745;50.882;6.962;2022-09-12T14:01:39;100729.00;;;23.70;62.67
34500;BME280;20745;50.882;6.962;2022-09-12T14:04:14;100724.91;;;23.73;62.33
34500;BME280;20745;50.882;6.962;2022-09-12T14:07:21;100718.31;;;23.79;62.37
34500;BME280;20745;50.882;6.962;2022-09-12T14:09:54;100711.69;;;23.80;62.29
34500;BME280;20745;50.882;6.962;2022-09-12T14:12:35;100722.72;;;23.80;62.38
34500;BME280;20745;50.882;6.962;2022-09-12T14:15:04;100722.22;;;23.88;61.83
34500;BME280;20745;50.882;6.962;2022-09-12T14:17:38;100715.03;;;23.92;60.92
34500;BME280;20745;50.882;6.962;2022-09-12T14:20:11;100709.53;;;23.87;61.87
34500;BME280;20745;50.882;6.962;2022-09-12T14:22:39;100700.66;;;23.85;61.89
34500;BME280;20745;50.882;6.962;2022-09-12T14:25:13;100696.84;;;23.86;61.71
34500;BME280;20745;50.882;6.962;2022-09-12T14:28:02;100695.19;;;23.90;61.41
34500;BME280;20745;50.882;6.962;2022-09-12T14:30:32;100692.47;;;23.95;61.85
34500;BME280;20745;50.882;6.962;2022-09-12T14:35:47;100674.72;;;23.81;61.75
34500;BME280;20745;50.882;6.962;2022-09-12T14:41:05;100678.59;;;23.85;61.68
34500;BME280;20745;50.882;6.962;2022-09-12T14:43:35;100669.78;;;23.83;61.99
34500;BME280;20745;50.882;6.962;2022-09-12T14:46:13;100671.16;;;23.80;62.39
34500;BME280;20745;50.882;6.962;2022-09-12T14:48:45;100664.22;;;23.78;62.77
34500;BME280;20745;50.882;6.962;2022-09-12T14:51:21;100662.00;;;23.75;62.78
34500;BME280;20745;50.882;6.962;2022-09-12T14:53:50;100650.44;;;23.73;62.63
34500;BME280;20745;50.882;6.962;2022-09-12T14:56:51;100657.59;;;23.74;62.24
34500;BME280;20745;50.882;6.962;2022-09-12T15:15:37;100644.84;;;23.58;62.08
34500;BME280;20745;50.882;6.962;2022-09-12T15:18:25;100650.91;;;23.60;62.71
34500;BME280;20745;50.882;6.962;2022-09-12T15:21:01;100647.59;;;23.58;62.81
34500;BME280;20745;50.882;6.962;2022-09-12T15:23:49;100649.50;;;23.52;63.02
34500;BME280;20745;50.882;6.962;2022-09-12T15:26:35;100642.03;;;23.48;62.84
34500;BME280;20745;50.882;6.962;2022-09-12T15:29:02;100649.19;;;23.44;62.89
34500;BME280;20745;50.882;6.962;2022-09-12T15:31:49;100648.06;;;23.45;62.57
34500;BME280;20745;50.882;6.962;2022-09-12T15:34:17;100639.00;;;23.44;62.81
34500;BME280;20745;50.882;6.962;2022-09-12T15:36:45;100636.22;;;23.44;61.84
34500;BME280;20745;50.882;6.962;2022-09-12T15:39:12;100631.50;;;23.40;62.51
34500;BME280;20745;50.882;6.962;2022-09-12T15:41:39;100630.72;;;23.44;61.18
34500;BME280;20745;50.882;6.962;2022-09-12T15:44:08;100623.56;;;23.48;62.29
34500;BME280;20745;50.882;6.962;2022-09-12T15:46:36;100623.03;;;23.51;61.32